sensor_id;sensor_type;location;lat;lon;timestamp;temperature;humidity
23403;DHT22;11874;48.228;11.684;2022-11-21T00:01:14;6.40;99.90
23403;DHT22;11874;48.228;11.684;2022-11-21T00:03:44;6.60;99.90
23403;DHT22;11874;48.228;11.684;2022-11-21T00:06:12;6.40;99.90
23403;DHT22;11874;48.228;11.684;2022-11-21T00:08:40;6.70;99.90
23403;DHT22;11874;48.228;11.684;2022-11-21T00:11:08;6.20;99.90
23403;DHT22;11874;48.228;11.684;2022-11-21T00:13:35;6.40;99.90
23403;DHT22;11874;48.228;11.684;2022-11-21T00:16:04;6.40;99.90
23403;DHT22;11874;48.228;11.684;2022-11-21T00:18:33;6.30;99.90
23403;DHT22;11874;48.228;11.684;2022-11-21T00:21:07;6.30;99.90
23403;DHT22;11874;48.228;11.684;2022-11-21T00:23:35;6.30;99.90
23403;DHT22;11874;48.228;11.684;2022-11-21T00:26:04;6.30;99.90
23403;DHT22;11874;48.228;11.684;2022-11-21T00:28:32;6.30;99.90
23403;DHT22;11874;48.228;11.684;2022-11-21T00:31:00;6.30;99.90
23403;DHT22;11874;48.228;11.684;2022-11-21T00:33:29;6.30;99.90
23403;DHT22;11874;48.228;11.684;2022-11-21T00:35:57;6.10;99.90
23403;DHT22;11874;48.228;11.684;2022-11-21T00:38:27;6.40;99.90
23403;DHT22;11874;48.228;11.684;2022-11-21T00:40:55;6.20;99.90
23403;DHT22;11874;48.228;11.684;2022-11-21T00:43:23;6.40;99.90
23403;DHT22;11874;48.228;11.684;2022-11-21T00:45:51;6.40;99.90
23403;DHT22;11874;48.228;11.684;2022-11-21T00:48:19;6.40;99.90
23403;DHT22;11874;48.228;11.684;2022-11-21T00:50:47;6.40;99.90
23403;DHT22;11874;48.228;11.684;2022-11-21T00:53:15;6.40;99.90
23403;DHT22;11874;48.228;11.684;2022-11-21T00:55:44;6.40;99.90
23403;DHT22;11874;48.228;11.684;2022-11-21T00:58:12;6.40;99.90
23403;DHT22;11874;48.228;11.684;2022-11-21T01:00:40;6.40;99.90
23403;DHT22;11874;48.228;11.684;2022-11-21T01:03:08;6.40;99.90
23403;DHT22;11874;48.228;11.684;2022-11-21T01:05:36;6.40;99.90
23403;DHT22;11874;48.228;11.684;2022-11-21T01:08:04;6.40;99.90
23403;DHT22;11874;48.228;11.684;2022-11-21T01:10:33;6.40;99.90
23403;DHT22;11874;48.228;11.684;2022-11-21T01:13:02;6.50;99.90
23403;DHT22;11874;48.228;11.684;2022-11-21T01:15:30;6.40;99.90
23403;DHT22;11874;48.228;11.684;2022-11-21T01:17:58;6.40;99.90
23403;DHT22;11874;48.228;11.684;2022-11-21T01:20:26;6.40;99.90
23403;DHT22;11874;48.228;11.684;2022-11-21T01:22:54;6.40;99.90
23403;DHT22;11874;48.228;11.684;2022-11-21T01:25:22;6.40;99.90
23403;DHT22;11874;48.228;11.684;2022-11-21T01:27:49;6.40;99.90
23403;DHT22;11874;48.228;11.684;2022-11-21T01:30:19;6.40;99.90
23403;DHT22;11874;48.228;11.684;2022-11-21T01:32:47;6.40;99.90
23403;DHT22;11874;48.228;11.684;2022-11-21T01:35:16;6.30;99.90
23403;DHT22;11874;48.228;11.684;2022-11-21T01:37:45;6.40;99.90
23403;DHT22;11874;48.228;11.684;2022-11-21T01:40:14;6.40;99.90
23403;DHT22;11874;48.228;11.684;2022-11-21T01:42:51;6.40;99.90
23403;DHT22;11874;48.228;11.684;2022-11-21T01:45:56;6.40;99.90
23403;DHT22;11874;48.228;11.684;2022-11-21T01:48:29;6.40;99.90
23403;DHT22;11874;48.228;11.684;2022-11-21T01:51:02;6.40;99.90
23403;DHT22;11874;48.228;11.684;2022-11-21T01:53:32;6.30;99.90
23403;DHT22;11874;48.228;11.684;2022-11-21T01:56:00;6.40;99.90
23403;DHT22;11874;48.228;11.684;2022-11-21T01:58:29;6.30;99.90
23403;DHT22;11874;48.228;11.684;2022-11-21T02:01:00;6.30;99.90
23403;DHT22;11874;48.228;11.684;2022-11-21T02:03:31;6.40;99.90
23403;DHT22;11874;48.228;11.684;2022-11-21T02:06:00;6.40;99.90
23403;DHT22;11874;48.228;11.684;2022-11-21T02:08:28;6.30;99.90
23403;DHT22;11874;48.228;11.684;2022-11-21T02:11:08;6.40;99.90
23403;DHT22;11874;48.228;11.684;2022-11-21T02:13:37;6.40;99.90
23403;DHT22;11874;48.228;11.684;2022-11-21T02:16:07;6.40;99.90
23403;DHT22;11874;48.228;11.684;2022-11-21T02:18:35;6.40;99.90
23403;DHT22;11874;48.228;11.684;2022-11-21T02:21:09;6.40;99.90
23403;DHT22;11874;48.228;11.684;2022-11-21T02:23:44;6.40;99.90
23403;DHT22;11874;48.228;11.684;2022-11-21T02:26:16;6.40;99.90
23403;DHT22;11874;48.228;11.684;2022-11-21T02:28:44;6.30;99.90
23403;DHT22;11874;48.228;11.684;2022-11-21T02:31:12;6.40;99.90
23403;DHT22;11874;48.228;11.684;2022-11-21T02:33:40;6.40;99.90
23403;DHT22;11874;48.228;11.684;2022-11-21T02:36:36;6.50;99.90
23403;DHT22;11874;48.228;11.684;2022-11-21T02:39:06;6.40;99.90
23403;DHT22;11874;48.228;11.684;2022-11-21T02:41:36;6.40;99.90
23403;DHT22;11874;48.228;11.684;2022-11-21T02:44:10;6.40;99.90
23403;DHT22;11874;48.228;11.684;2022-11-21T02:46:46;6.40;99.90
23403;DHT22;11874;48.228;11.684;2022-11-21T02:49:21;6.40;99.90
23403;DHT22;11874;48.228;11.684;2022-11-21T02:51:50;6.40;99.90
23403;DHT22;11874;48.228;11.684;2022-11-21T02:54:18;6.40;99.90
23403;DHT22;11874;48.228;11.684;2022-11-21T02:56:47;6.30;99.90
23403;DHT22;11874;48.228;11.684;2022-11-21T02:59:15;6.40;99.90
23403;DHT22;11874;48.228;11.684;2022-11-21T03:01:43;6.40;99.90
23403;DHT22;11874;48.228;11.684;2022-11-21T03:04:11;6.40;99.90
23403;DHT22;11874;48.228;11.684;2022-11-21T03:06:39;6.30;99.90
23403;DHT22;11874;48.228;11.684;2022-11-21T03:09:06;6.40;99.90
23403;DHT22;11874;48.228;11.684;2022-11-21T03:11:34;6.30;99.90
23403;DHT22;11874;48.228;11.684;2022-11-21T03:14:03;6.30;99.90
23403;DHT22;11874;48.228;11.684;2022-11-21T03:16:31;6.30;99.90
23403;DHT22;11874;48.228;11.684;2022-11-21T03:18:59;6.30;99.90
23403;DHT22;11874;48.228;11.684;2022-11-21T03:21:27;6.30;99.90
23403;DHT22;11874;48.228;11.684;2022-11-21T03:23:55;6.30;99.90
23403;DHT22;11874;48.228;11.684;2022-11-21T03:26:23;6.30;99.90
23403;DHT22;11874;48.228;11.684;2022-11-21T03:28:51;6.30;99.90
23403;DHT22;11874;48.228;11.684;2022-11-21T03:31:20;6.30;99.90
23403;DHT22;11874;48.228;11.684;2022-11-21T03:33:48;6.40;99.90
23403;DHT22;11874;48.228;11.684;2022-11-21T03:36:15;6.30;99.90
23403;DHT22;11874;48.228;11.684;2022-11-21T03:38:43;6.40;99.90
23403;DHT22;11874;48.228;11.684;2022-11-21T03:41:11;6.30;99.90
23403;DHT22;11874;48.228;11.684;2022-11-21T03:43:53;6.40;99.90
23403;DHT22;11874;48.228;11.684;2022-11-21T03:46:22;6.30;99.90
23403;DHT22;11874;48.228;11.684;2022-11-21T03:48:50;6.50;99.90
23403;DHT22;11874;48.228;11.684;2022-11-21T03:51:18;6.30;99.90
23403;DHT22;11874;48.228;11.684;2022-11-21T03:53:46;6.40;99.90
23403;DHT22;11874;48.228;11.684;2022-11-21T03:56:14;6.40;99.90
23403;DHT22;11874;48.228;11.684;2022-11-21T03:58:42;6.40;99.90
23403;DHT22;11874;48.228;11.684;2022-11-21T04:01:10;6.40;99.90
23403;DHT22;11874;48.228;11.684;2022-11-21T04:03:41;6.40;99.90
23403;DHT22;11874;48.228;11.684;2022-11-21T04:06:10;6.20;99.90
23403;DHT22;11874;48.228;11.684;2022-11-21T04:08:38;6.40;99.90
23403;DHT22;11874;48.228;11.684;2022-11-21T04:11:07;6.40;99.90
23403;DHT22;11874;48.228;11.684;2022-11-21T04:13:35;6.40;99.90
23403;DHT22;11874;48.228;11.684;2022-11-21T04:16:03;6.40;99.90
23403;DHT22;11874;48.228;11.684;2022-11-21T04:18:32;6.40;99.90
23403;DHT22;11874;48.228;11.684;2022-11-21T04:21:03;6.40;99.90
23403;DHT22;11874;48.228;11.684;2022-11-21T04:23:31;6.50;99.90
23403;DHT22;11874;48.228;11.684;2022-11-21T04:26:00;6.40;99.90
23403;DHT22;11874;48.228;11.684;2022-11-21T04:28:28;6.70;99.90
23403;DHT22;11874;48.228;11.684;2022-11-21T04:31:01;6.50;99.90
23403;DHT22;11874;48.228;11.684;2022-11-21T04:33:36;6.50;99.90
23403;DHT22;11874;48.228;11.684;2022-11-21T04:36:06;6.50;99.90
23403;DHT22;11874;48.228;11.684;2022-11-21T04:38:33;6.50;99.90
23403;DHT22;11874;48.228;11.684;2022-11-21T04:41:01;6.40;99.90
23403;DHT22;11874;48.228;11.684;2022-11-21T04:43:30;6.40;99.90
23403;DHT22;11874;48.228;11.684;2022-11-21T04:45:58;6.50;99.90
23403;DHT22;11874;48.228;11.684;2022-11-21T04:48:26;6.50;99.90
23403;DHT22;11874;48.228;11.684;2022-11-21T04:50:53;6.50;99.90
23403;DHT22;11874;48.228;11.684;2022-11-21T04:53:23;6.40;99.90
23403;DHT22;11874;48.228;11.684;2022-11-21T04:55:50;6.40;99.90
23403;DHT22;11874;48.228;11.684;2022-11-21T04:58:18;6.30;99.90
23403;DHT22;11874;48.228;11.684;2022-11-21T05:00:46;6.50;99.90
23403;DHT22;11874;48.228;11.684;2022-11-21T05:03:14;6.40;99.90
23403;DHT22;11874;48.228;11.684;2022-11-21T05:05:42;6.40;99.90
23403;DHT22;11874;48.228;11.684;2022-11-21T05:08:10;6.40;99.90
23403;DHT22;11874;48.228;11.684;2022-11-21T05:10:39;6.40;99.90
23403;DHT22;11874;48.228;11.684;2022-11-21T05:13:21;6.30;99.90
23403;DHT22;11874;48.228;11.684;2022-11-21T05:15:55;6.40;99.90
23403;DHT22;11874;48.228;11.684;2022-11-21T05:18:23;6.30;99.90
23403;DHT22;11874;48.228;11.684;2022-11-21T05:20:51;6.30;99.90
23403;DHT22;11874;48.228;11.684;2022-11-21T05:23:19;6.30;99.90
23403;DHT22;11874;48.228;11.684;2022-11-21T05:25:48;6.30;99.90
23403;DHT22;11874;48.228;11.684;2022-11-21T05:28:16;6.30;99.90
23403;DHT22;11874;48.228;11.684;2022-11-21T05:30:44;6.30;99.90
23403;DHT22;11874;48.228;11.684;2022-11-21T05:33:11;6.30;99.90
23403;DHT22;11874;48.228;11.684;2022-11-21T05:35:39;6.30;99.90
23403;DHT22;11874;48.228;11.684;2022-11-21T05:38:09;6.50;99.90
23403;DHT22;11874;48.228;11.684;2022-11-21T05:40:37;6.30;99.90
23403;DHT22;11874;48.228;11.684;2022-11-21T05:43:08;6.30;99.90
23403;DHT22;11874;48.228;11.684;2022-11-21T05:45:53;6.40;99.90
23403;DHT22;11874;48.228;11.684;2022-11-21T05:48:21;6.40;99.90
23403;DHT22;11874;48.228;11.684;2022-11-21T05:50:49;6.40;99.90
23403;DHT22;11874;48.228;11.684;2022-11-21T05:53:17;6.60;99.90
23403;DHT22;11874;48.228;11.684;2022-11-21T05:55:45;6.30;99.90
23403;DHT22;11874;48.228;11.684;2022-11-21T05:58:14;6.30;99.90
23403;DHT22;11874;48.228;11.684;2022-11-21T06:00:42;6.30;99.90
23403;DHT22;11874;48.228;11.684;2022-11-21T06:03:10;6.20;99.90
23403;DHT22;11874;48.228;11.684;2022-11-21T06:06:04;6.10;99.90
23403;DHT22;11874;48.228;11.684;2022-11-21T06:08:35;6.20;99.90
23403;DHT22;11874;48.228;11.684;2022-11-21T06:11:04;6.30;99.90
23403;DHT22;11874;48.228;11.684;2022-11-21T06:13:34;6.30;99.90
23403;DHT22;11874;48.228;11.684;2022-11-21T06:16:03;6.30;99.90
23403;DHT22;11874;48.228;11.684;2022-11-21T06:18:33;6.20;99.90
23403;DHT22;11874;48.228;11.684;2022-11-21T06:21:02;6.20;99.90
23403;DHT22;11874;48.228;11.684;2022-11-21T06:23:31;6.20;99.90
23403;DHT22;11874;48.228;11.684;2022-11-21T06:25:59;6.20;99.90
23403;DHT22;11874;48.228;11.684;2022-11-21T06:28:30;6.10;99.90
23403;DHT22;11874;48.228;11.684;2022-11-21T06:31:03;6.10;99.90
23403;DHT22;11874;48.228;11.684;2022-11-21T06:33:31;6.10;99.90
23403;DHT22;11874;48.228;11.684;2022-11-21T06:36:01;6.10;99.90
23403;DHT22;11874;48.228;11.684;2022-11-21T06:38:29;6.10;99.90
23403;DHT22;11874;48.228;11.684;2022-11-21T06:40:57;6.10;99.90
23403;DHT22;11874;48.228;11.684;2022-11-21T06:43:26;6.10;99.90
23403;DHT22;11874;48.228;11.684;2022-11-21T06:45:54;6.10;99.90
23403;DHT22;11874;48.228;11.684;2022-11-21T06:48:25;6.10;99.90
23403;DHT22;11874;48.228;11.684;2022-11-21T06:50:53;6.10;99.90
23403;DHT22;11874;48.228;11.684;2022-11-21T06:53:21;6.10;99.90
23403;DHT22;11874;48.228;11.684;2022-11-21T06:55:49;6.10;99.90
23403;DHT22;11874;48.228;11.684;2022-11-21T06:58:17;7.10;99.90
23403;DHT22;11874;48.228;11.684;2022-11-21T07:00:45;6.10;99.90
23403;DHT22;11874;48.228;11.684;2022-11-21T07:03:14;6.10;99.90
23403;DHT22;11874;48.228;11.684;2022-11-21T07:05:44;6.30;99.90
23403;DHT22;11874;48.228;11.684;2022-11-21T07:08:12;6.20;99.90
23403;DHT22;11874;48.228;11.684;2022-11-21T07:10:40;6.20;99.90
23403;DHT22;11874;48.228;11.684;2022-11-21T07:13:29;6.20;99.90
23403;DHT22;11874;48.228;11.684;2022-11-21T07:16:00;6.10;99.90
23403;DHT22;11874;48.228;11.684;2022-11-21T07:18:28;6.20;99.90
23403;DHT22;11874;48.228;11.684;2022-11-21T07:20:58;6.20;99.90
23403;DHT22;11874;48.228;11.684;2022-11-21T07:23:26;6.80;99.90
23403;DHT22;11874;48.228;11.684;2022-11-21T07:25:58;6.20;99.90
23403;DHT22;11874;48.228;11.684;2022-11-21T07:28:27;6.20;99.90
23403;DHT22;11874;48.228;11.684;2022-11-21T07:30:55;6.80;99.90
23403;DHT22;11874;48.228;11.684;2022-11-21T07:33:24;6.20;99.90
23403;DHT22;11874;48.228;11.684;2022-11-21T07:35:54;7.20;99.90
23403;DHT22;11874;48.228;11.684;2022-11-21T07:38:25;6.20;99.90
23403;DHT22;11874;48.228;11.684;2022-11-21T07:40:55;6.20;99.90
23403;DHT22;11874;48.228;11.684;2022-11-21T07:43:23;6.20;99.90
23403;DHT22;11874;48.228;11.684;2022-11-21T07:45:51;6.20;99.90
23403;DHT22;11874;48.228;11.684;2022-11-21T07:48:18;6.20;99.90
23403;DHT22;11874;48.228;11.684;2022-11-21T07:50:46;6.30;99.90
23403;DHT22;11874;48.228;11.684;2022-11-21T07:53:14;6.20;99.90
23403;DHT22;11874;48.228;11.684;2022-11-21T07:55:43;6.20;99.90
23403;DHT22;11874;48.228;11.684;2022-11-21T07:58:13;6.30;99.90
23403;DHT22;11874;48.228;11.684;2022-11-21T08:00:41;6.60;99.90
23403;DHT22;11874;48.228;11.684;2022-11-21T08:03:10;6.70;99.90
23403;DHT22;11874;48.228;11.684;2022-11-21T08:05:39;5.90;99.90
23403;DHT22;11874;48.228;11.684;2022-11-21T08:08:08;6.20;99.90
23403;DHT22;11874;48.228;11.684;2022-11-21T08:10:37;6.20;99.90
23403;DHT22;11874;48.228;11.684;2022-11-21T08:13:06;6.30;99.90
23403;DHT22;11874;48.228;11.684;2022-11-21T08:15:34;6.20;99.90
23403;DHT22;11874;48.228;11.684;2022-11-21T08:18:07;6.00;99.90
23403;DHT22;11874;48.228;11.684;2022-11-21T08:20:35;6.20;99.90
23403;DHT22;11874;48.228;11.684;2022-11-21T08:23:04;6.20;99.90
23403;DHT22;11874;48.228;11.684;2022-11-21T08:25:33;6.60;99.90
23403;DHT22;11874;48.228;11.684;2022-11-21T08:28:01;6.30;99.90
23403;DHT22;11874;48.228;11.684;2022-11-21T08:30:31;6.30;99.90
23403;DHT22;11874;48.228;11.684;2022-11-21T08:32:59;6.40;99.90
23403;DHT22;11874;48.228;11.684;2022-11-21T08:35:27;6.40;99.90
23403;DHT22;11874;48.228;11.684;2022-11-21T08:37:55;6.40;99.90
23403;DHT22;11874;48.228;11.684;2022-11-21T08:40:24;6.50;99.90
23403;DHT22;11874;48.228;11.684;2022-11-21T08:42:55;7.00;99.90
23403;DHT22;11874;48.228;11.684;2022-11-21T08:45:24;6.50;99.90
23403;DHT22;11874;48.228;11.684;2022-11-21T08:47:53;6.50;99.90
23403;DHT22;11874;48.228;11.684;2022-11-21T08:50:22;6.50;99.90
23403;DHT22;11874;48.228;11.684;2022-11-21T08:52:50;6.50;99.90
23403;DHT22;11874;48.228;11.684;2022-11-21T08:55:18;6.50;99.90
23403;DHT22;11874;48.228;11.684;2022-11-21T08:57:48;7.20;99.90
23403;DHT22;11874;48.228;11.684;2022-11-21T09:00:16;6.60;99.90
23403;DHT22;11874;48.228;11.684;2022-11-21T09:02:44;6.60;99.90
23403;DHT22;11874;48.228;11.684;2022-11-21T09:05:13;7.50;99.90
23403;DHT22;11874;48.228;11.684;2022-11-21T09:07:41;6.60;99.90
23403;DHT22;11874;48.228;11.684;2022-11-21T09:10:09;6.60;99.90
23403;DHT22;11874;48.228;11.684;2022-11-21T09:12:37;6.50;99.90
23403;DHT22;11874;48.228;11.684;2022-11-21T09:15:08;6.60;99.90
23403;DHT22;11874;48.228;11.684;2022-11-21T09:17:53;6.60;99.90
23403;DHT22;11874;48.228;11.684;2022-11-21T09:20:33;6.50;99.90
23403;DHT22;11874;48.228;11.684;2022-11-21T09:23:03;6.60;99.90
23403;DHT22;11874;48.228;11.684;2022-11-21T09:25:31;6.60;99.90
23403;DHT22;11874;48.228;11.684;2022-11-21T09:28:01;6.70;99.90
23403;DHT22;11874;48.228;11.684;2022-11-21T09:30:29;6.70;99.90
23403;DHT22;11874;48.228;11.684;2022-11-21T09:32:59;6.70;99.90
23403;DHT22;11874;48.228;11.684;2022-11-21T09:35:28;6.80;99.90
23403;DHT22;11874;48.228;11.684;2022-11-21T09:37:57;6.80;99.90
23403;DHT22;11874;48.228;11.684;2022-11-21T09:40:26;6.80;99.90
23403;DHT22;11874;48.228;11.684;2022-11-21T09:43:05;6.90;99.90
23403;DHT22;11874;48.228;11.684;2022-11-21T09:45:41;7.00;99.90
23403;DHT22;11874;48.228;11.684;2022-11-21T09:48:13;7.10;99.90
23403;DHT22;11874;48.228;11.684;2022-11-21T09:50:45;7.40;99.90
23403;DHT22;11874;48.228;11.684;2022-11-21T09:53:24;7.10;99.90
23403;DHT22;11874;48.228;11.684;2022-11-21T09:55:56;7.10;99.90
23403;DHT22;11874;48.228;11.684;2022-11-21T09:58:30;7.20;99.90
23403;DHT22;11874;48.228;11.684;2022-11-21T10:00:59;7.20;99.90
23403;DHT22;11874;48.228;11.684;2022-11-21T10:03:29;7.30;99.90
23403;DHT22;11874;48.228;11.684;2022-11-21T10:06:00;7.20;99.90
23403;DHT22;11874;48.228;11.684;2022-11-21T10:08:40;7.70;99.90
23403;DHT22;11874;48.228;11.684;2022-11-21T10:11:17;7.20;99.90
23403;DHT22;11874;48.228;11.684;2022-11-21T10:14:03;7.30;99.90
23403;DHT22;11874;48.228;11.684;2022-11-21T10:16:42;7.30;99.90
23403;DHT22;11874;48.228;11.684;2022-11-21T10:19:38;7.30;99.90
23403;DHT22;11874;48.228;11.684;2022-11-21T10:22:34;7.30;99.90
23403;DHT22;11874;48.228;11.684;2022-11-21T10:25:12;7.30;99.90
23403;DHT22;11874;48.228;11.684;2022-11-21T10:27:46;7.20;99.90
23403;DHT22;11874;48.228;11.684;2022-11-21T10:30:18;7.20;99.90
23403;DHT22;11874;48.228;11.684;2022-11-21T10:32:48;7.20;99.90
23403;DHT22;11874;48.228;11.684;2022-11-21T10:35:21;7.20;99.90
23403;DHT22;11874;48.228;11.684;2022-11-21T10:37:52;7.20;99.90
23403;DHT22;11874;48.228;11.684;2022-11-21T10:40:30;7.10;99.90
23403;DHT22;11874;48.228;11.684;2022-11-21T10:43:00;7.20;99.90
23403;DHT22;11874;48.228;11.684;2022-11-21T10:45:52;7.30;99.90
23403;DHT22;11874;48.228;11.684;2022-11-21T10:48:19;7.30;99.90
23403;DHT22;11874;48.228;11.684;2022-11-21T10:50:55;7.50;99.90
23403;DHT22;11874;48.228;11.684;2022-11-21T10:53:29;7.40;99.90
23403;DHT22;11874;48.228;11.684;2022-11-21T10:56:18;7.40;99.90
23403;DHT22;11874;48.228;11.684;2022-11-21T10:58:48;7.50;99.90
23403;DHT22;11874;48.228;11.684;2022-11-21T11:01:25;7.50;99.90
23403;DHT22;11874;48.228;11.684;2022-11-21T11:04:15;7.50;99.90
23403;DHT22;11874;48.228;11.684;2022-11-21T11:07:19;7.60;99.90
23403;DHT22;11874;48.228;11.684;2022-11-21T11:09:48;7.60;99.90
23403;DHT22;11874;48.228;11.684;2022-11-21T11:12:25;7.50;99.90
23403;DHT22;11874;48.228;11.684;2022-11-21T11:15:18;7.60;99.90
23403;DHT22;11874;48.228;11.684;2022-11-21T11:17:52;7.60;99.90
23403;DHT22;11874;48.228;11.684;2022-11-21T11:20:37;7.60;99.90
23403;DHT22;11874;48.228;11.684;2022-11-21T11:23:16;7.60;99.90
23403;DHT22;11874;48.228;11.684;2022-11-21T11:25:45;7.60;99.90
23403;DHT22;11874;48.228;11.684;2022-11-21T11:28:16;7.80;99.90
23403;DHT22;11874;48.228;11.684;2022-11-21T11:30:46;7.60;99.90
23403;DHT22;11874;48.228;11.684;2022-11-21T11:33:32;7.60;99.90
23403;DHT22;11874;48.228;11.684;2022-11-21T11:36:13;7.60;99.90
23403;DHT22;11874;48.228;11.684;2022-11-21T11:38:44;7.60;99.90
23403;DHT22;11874;48.228;11.684;2022-11-21T11:41:23;7.60;99.90
23403;DHT22;11874;48.228;11.684;2022-11-21T11:44:04;7.60;99.90
23403;DHT22;11874;48.228;11.684;2022-11-21T11:47:01;7.60;99.90
23403;DHT22;11874;48.228;11.684;2022-11-21T11:49:50;7.60;99.90
23403;DHT22;11874;48.228;11.684;2022-11-21T11:52:42;7.60;99.90
23403;DHT22;11874;48.228;11.684;2022-11-21T11:55:16;7.60;99.90
23403;DHT22;11874;48.228;11.684;2022-11-21T11:57:47;7.60;99.90
23403;DHT22;11874;48.228;11.684;2022-11-21T12:00:26;7.60;99.90
23403;DHT22;11874;48.228;11.684;2022-11-21T12:03:00;7.70;99.90
23403;DHT22;11874;48.228;11.684;2022-11-21T12:05:30;8.00;99.90
23403;DHT22;11874;48.228;11.684;2022-11-21T12:08:13;7.80;99.90
23403;DHT22;11874;48.228;11.684;2022-11-21T12:11:10;7.90;99.90
23403;DHT22;11874;48.228;11.684;2022-11-21T12:14:03;8.00;99.90
23403;DHT22;11874;48.228;11.684;2022-11-21T12:16:36;8.00;99.90
23403;DHT22;11874;48.228;11.684;2022-11-21T12:19:11;8.00;99.90
23403;DHT22;11874;48.228;11.684;2022-11-21T12:21:41;8.00;99.90
23403;DHT22;11874;48.228;11.684;2022-11-21T12:24:09;8.00;99.90
23403;DHT22;11874;48.228;11.684;2022-11-21T12:26:47;8.20;99.90
23403;DHT22;11874;48.228;11.684;2022-11-21T12:29:23;8.30;99.90
23403;DHT22;11874;48.228;11.684;2022-11-21T12:32:06;8.60;99.90
23403;DHT22;11874;48.228;11.684;2022-11-21T12:34:52;8.50;99.90
23403;DHT22;11874;48.228;11.684;2022-11-21T12:37:32;8.60;99.90
23403;DHT22;11874;48.228;11.684;2022-11-21T12:40:11;8.90;99.90
23403;DHT22;11874;48.228;11.684;2022-11-21T12:42:55;9.80;99.90
23403;DHT22;11874;48.228;11.684;2022-11-21T12:45:27;9.40;99.90
23403;DHT22;11874;48.228;11.684;2022-11-21T12:48:18;9.70;99.90
23403;DHT22;11874;48.228;11.684;2022-11-21T12:51:29;9.90;99.90
23403;DHT22;11874;48.228;11.684;2022-11-21T12:54:36;9.90;99.90
23403;DHT22;11874;48.228;11.684;2022-11-21T12:57:10;9.80;99.90
23403;DHT22;11874;48.228;11.684;2022-11-21T12:59:49;9.60;99.90
23403;DHT22;11874;48.228;11.684;2022-11-21T13:02:26;9.30;99.90
23403;DHT22;11874;48.228;11.684;2022-11-21T13:04:59;9.20;99.90
23403;DHT22;11874;48.228;11.684;2022-11-21T13:07:29;9.00;99.90
23403;DHT22;11874;48.228;11.684;2022-11-21T13:09:59;8.90;99.90
23403;DHT22;11874;48.228;11.684;2022-11-21T13:12:32;8.80;99.90
23403;DHT22;11874;48.228;11.684;2022-11-21T13:15:15;8.70;99.90
23403;DHT22;11874;48.228;11.684;2022-11-21T13:17:49;8.60;99.90
23403;DHT22;11874;48.228;11.684;2022-11-21T13:20:27;8.60;99.90
23403;DHT22;11874;48.228;11.684;2022-11-21T13:22:58;8.50;99.90
23403;DHT22;11874;48.228;11.684;2022-11-21T13:25:42;8.50;99.90
23403;DHT22;11874;48.228;11.684;2022-11-21T13:28:31;8.40;99.90
23403;DHT22;11874;48.228;11.684;2022-11-21T13:31:02;8.40;99.90
23403;DHT22;11874;48.228;11.684;2022-11-21T13:33:45;8.30;99.90
23403;DHT22;11874;48.228;11.684;2022-11-21T13:36:42;8.30;99.90
23403;DHT22;11874;48.228;11.684;2022-11-21T13:39:32;8.30;99.90
23403;DHT22;11874;48.228;11.684;2022-11-21T13:42:18;8.30;99.90
23403;DHT22;11874;48.228;11.684;2022-11-21T13:48:39;8.30;99.90
23403;DHT22;11874;48.228;11.684;2022-11-21T13:51:25;8.20;99.90
23403;DHT22;11874;48.228;11.684;2022-11-21T13:57:20;8.20;99.90
23403;DHT22;11874;48.228;11.684;2022-11-21T14:00:09;8.10;99.90
23403;DHT22;11874;48.228;11.684;2022-11-21T14:03:08;8.10;99.90
23403;DHT22;11874;48.228;11.684;2022-11-21T14:05:54;8.10;99.90
23403;DHT22;11874;48.228;11.684;2022-11-21T14:08:27;8.10;99.90
23403;DHT22;11874;48.228;11.684;2022-11-21T14:10:56;8.10;99.90
23403;DHT22;11874;48.228;11.684;2022-11-21T14:13:28;8.30;99.90
23403;DHT22;11874;48.228;11.684;2022-11-21T14:16:06;8.10;99.90
23403;DHT22;11874;48.228;11.684;2022-11-21T14:18:41;8.10;99.90
23403;DHT22;11874;48.228;11.684;2022-11-21T14:21:18;8.10;99.90
23403;DHT22;11874;48.228;11.684;2022-11-21T14:23:47;8.10;99.90
23403;DHT22;11874;48.228;11.684;2022-11-21T14:26:17;8.10;99.90
23403;DHT22;11874;48.228;11.684;2022-11-21T14:28:48;8.00;99.90
23403;DHT22;11874;48.228;11.684;2022-11-21T14:31:16;8.10;99.90
23403;DHT22;11874;48.228;11.684;2022-11-21T14:33:44;8.10;99.90
23403;DHT22;11874;48.228;11.684;2022-11-21T14:36:15;8.60;99.90
23403;DHT22;11874;48.228;11.684;2022-11-21T14:38:45;8.10;99.90
23403;DHT22;11874;48.228;11.684;2022-11-21T14:41:33;8.20;99.90
23403;DHT22;11874;48.228;11.684;2022-11-21T14:44:17;8.20;99.90
23403;DHT22;11874;48.228;11.684;2022-11-21T14:46:46;8.20;99.90
23403;DHT22;11874;48.228;11.684;2022-11-21T14:49:24;8.20;99.90
23403;DHT22;11874;48.228;11.684;2022-11-21T14:52:02;8.20;99.90
23403;DHT22;11874;48.228;11.684;2022-11-21T14:54:32;8.20;99.90
23403;DHT22;11874;48.228;11.684;2022-11-21T14:57:03;8.20;99.90
23403;DHT22;11874;48.228;11.684;2022-11-21T14:59:38;8.20;99.90
23403;DHT22;11874;48.228;11.684;2022-11-21T15:02:10;8.20;99.90
23403;DHT22;11874;48.228;11.684;2022-11-21T15:04:40;8.10;99.90
23403;DHT22;11874;48.228;11.684;2022-11-21T15:07:17;8.70;99.90
23403;DHT22;11874;48.228;11.684;2022-11-21T15:09:47;8.10;99.90
23403;DHT22;11874;48.228;11.684;2022-11-21T15:12:39;8.70;99.90
23403;DHT22;11874;48.228;11.684;2022-11-21T15:15:23;8.00;99.90
23403;DHT22;11874;48.228;11.684;2022-11-21T15:17:55;7.90;99.90
23403;DHT22;11874;48.228;11.684;2022-11-21T15:20:46;7.90;99.90
23403;DHT22;11874;48.228;11.684;2022-11-21T15:23:25;7.90;99.90
23403;DHT22;11874;48.228;11.684;2022-11-21T15:25:53;7.90;99.90
23403;DHT22;11874;48.228;11.684;2022-11-21T15:28:27;7.90;99.90
23403;DHT22;11874;48.228;11.684;2022-11-21T15:31:16;7.80;99.90
23403;DHT22;11874;48.228;11.684;2022-11-21T15:34:02;7.70;99.90
23403;DHT22;11874;48.228;11.684;2022-11-21T15:37:01;7.60;99.90
23403;DHT22;11874;48.228;11.684;2022-11-21T15:39:34;7.70;99.90
23403;DHT22;11874;48.228;11.684;2022-11-21T15:42:33;7.60;99.90
23403;DHT22;11874;48.228;11.684;2022-11-21T15:45:19;7.60;99.90
23403;DHT22;11874;48.228;11.684;2022-11-21T15:47:49;7.60;99.90
23403;DHT22;11874;48.228;11.684;2022-11-21T15:50:16;7.40;99.90
23403;DHT22;11874;48.228;11.684;2022-11-21T15:52:45;7.60;99.90
23403;DHT22;11874;48.228;11.684;2022-11-21T15:55:33;7.50;99.90
23403;DHT22;11874;48.228;11.684;2022-11-21T15:58:01;7.50;99.90
23403;DHT22;11874;48.228;11.684;2022-11-21T16:00:29;7.50;99.90
23403;DHT22;11874;48.228;11.684;2022-11-21T16:02:58;7.50;99.90
23403;DHT22;11874;48.228;11.684;2022-11-21T16:05:26;7.40;99.90
23403;DHT22;11874;48.228;11.684;2022-11-21T16:07:54;7.40;99.90
23403;DHT22;11874;48.228;11.684;2022-11-21T16:10:22;7.40;99.90
23403;DHT22;11874;48.228;11.684;2022-11-21T16:12:54;7.30;99.90